page 4619 of 1009911 registered users

eBook PostsUsers

  1. 0skillkidney73 registered @ 2012-11-26 13:48:32, last login @ 2012-11-26 13:48:32
  2. 0hellpizza89 registered @ 2012-11-26 13:49:56, last login @ 2012-11-26 13:49:56
  3. 0era52answer registered @ 2012-11-26 13:49:59, last login @ 2012-11-26 13:49:59
  4. 0shelf4zinc registered @ 2012-11-26 13:50:14, last login @ 2012-11-26 13:50:14
  5. 0print9woolen registered @ 2012-11-26 13:51:07, last login @ 2012-11-26 13:51:07
  6. 0rawers92123 registered @ 2012-11-26 13:51:37, last login @ 2012-11-26 13:51:37
  7. 0bowlbirch0 registered @ 2012-11-26 13:51:48, last login @ 2012-11-26 13:51:48
  8. 0bangle2swamp registered @ 2012-11-26 13:51:48, last login @ 2012-11-26 13:51:48
  9. 0poison0drum registered @ 2012-11-26 13:52:44, last login @ 2012-11-26 13:52:44
  10. 0beetletooth9 registered @ 2012-11-26 13:52:45, last login @ 2012-11-26 13:52:45
  11. 0friday2tempo registered @ 2012-11-26 13:53:53, last login @ 2012-11-26 13:53:53
  12. 0bottom46cord registered @ 2012-11-26 13:54:28, last login @ 2012-11-26 13:54:28
  13. 0tennis04expert registered @ 2012-11-26 13:55:39, last login @ 2012-11-26 13:55:39
  14. 0beaverbook41 registered @ 2012-11-26 13:56:22, last login @ 2012-11-26 13:56:22
  15. 0lingzpengy registered @ 2012-11-26 13:56:27, last login @ 2012-11-26 13:58:56
  16. 0spruce5woman registered @ 2012-11-26 13:56:58, last login @ 2012-11-26 13:56:58
  17. 0spike46jeff registered @ 2012-11-26 13:57:02, last login @ 2012-11-26 13:57:02
  18. 0degree86buffet registered @ 2012-11-26 13:57:25, last login @ 2012-11-26 13:57:25
  19. 0bomber7energy registered @ 2012-11-26 13:57:41, last login @ 2012-11-26 13:57:41
  20. 0robin5dog registered @ 2012-11-26 13:58:52, last login @ 2012-11-26 13:58:52
  21. 0share7greece registered @ 2012-11-26 13:59:01, last login @ 2012-11-26 13:59:01
  22. 0raven16song registered @ 2012-11-26 13:59:14, last login @ 2012-11-26 13:59:14
  23. 0powder32hail registered @ 2012-11-26 14:02:14, last login @ 2012-11-26 14:02:14
  24. 0russiageese74 registered @ 2012-11-26 14:02:28, last login @ 2012-11-26 14:02:28
  25. 0enemyspark4 registered @ 2012-11-26 14:02:50, last login @ 2012-11-26 14:02:50
  26. 0pilotglue17 registered @ 2012-11-26 14:03:06, last login @ 2012-11-26 14:55:31
  27. 0creammove28 registered @ 2012-11-26 14:03:51, last login @ 2012-11-26 14:03:51
  28. 0angle06drama registered @ 2012-11-26 14:04:07, last login @ 2012-11-26 14:04:07
  29. 0aunt22egypt registered @ 2012-11-26 14:05:07, last login @ 2012-11-26 14:05:07
  30. 0snailairbus7 registered @ 2012-11-26 14:05:12, last login @ 2012-11-26 14:05:12
  31. 0taste48eye registered @ 2012-11-26 14:05:18, last login @ 2012-11-26 14:05:18
  32. 0dryknot34 registered @ 2012-11-26 14:05:28, last login @ 2012-11-26 14:05:28
  33. 0foamcover6 registered @ 2012-11-26 14:05:44, last login @ 2012-11-26 14:28:17
  34. 0atom52sleep registered @ 2012-11-26 14:06:11, last login @ 2012-11-26 14:06:11
  35. 0brownchina95 registered @ 2012-11-26 14:07:09, last login @ 2012-11-26 14:07:09
  36. 0plant60dew registered @ 2012-11-26 14:09:06, last login @ 2012-11-26 14:09:06
  37. 0hate45porch registered @ 2012-11-26 14:10:19, last login @ 2012-11-26 14:10:19
  38. 0bomber48vacuum registered @ 2012-11-26 14:10:33, last login @ 2012-11-26 14:10:33
  39. 0CalamiaMikkelson registered @ 2012-11-26 14:11:18, last login @ 2012-11-26 14:11:18
  40. 0card8viola registered @ 2012-11-26 14:11:29, last login @ 2012-11-26 14:11:29
  41. 0ronald9crab registered @ 2012-11-26 14:12:26, last login @ 2012-11-26 14:12:26
  42. 0ounce2flock registered @ 2012-11-26 14:12:42, last login @ 2012-11-26 14:12:42
  43. 0branch7delete registered @ 2012-11-26 14:13:14, last login @ 2012-11-26 14:13:14
  44. 0nepalbagel9 registered @ 2012-11-26 14:13:25, last login @ 2012-11-26 14:13:25
  45. 0worm97dryer registered @ 2012-11-26 14:13:49, last login @ 2012-11-26 14:13:49
  46. 0change86maid registered @ 2012-11-26 14:14:15, last login @ 2012-11-26 14:14:15
  47. 0valuequart2 registered @ 2012-11-26 14:15:29, last login @ 2012-11-26 14:15:29
  48. 0wrist2skill registered @ 2012-11-26 14:16:24, last login @ 2012-11-26 14:16:24
  49. 0cattle6angle registered @ 2012-11-26 14:16:39, last login @ 2012-11-26 14:16:39
  50. 0menuyellow17 registered @ 2012-11-26 14:22:45, last login @ 2012-11-26 14:22:45
  51. 0dangercopper46 registered @ 2012-11-26 14:24:05, last login @ 2012-11-26 14:24:05
  52. 0VirgilHCrowe registered @ 2012-11-26 14:24:36, last login @ 2012-11-26 14:24:36
  53. 0earshelf45 registered @ 2012-11-26 14:24:41, last login @ 2012-11-26 14:24:41
  54. 0Jljuan registered @ 2012-11-26 14:25:01, last login @ 2012-11-26 14:32:46
  55. 0woodmail81 registered @ 2012-11-26 14:25:03, last login @ 2012-11-26 14:25:03
  56. 0purplebeat16 registered @ 2012-11-26 14:25:56, last login @ 2012-11-26 14:25:56
  57. 0actor2dibble registered @ 2012-11-26 14:28:55, last login @ 2012-11-26 14:28:55
  58. 0zephyr8screen registered @ 2012-11-26 14:29:00, last login @ 2012-11-26 14:29:00
  59. 0breakmay7 registered @ 2012-11-26 14:29:09, last login @ 2012-11-26 14:29:09
  60. 0side5snail registered @ 2012-11-26 14:30:37, last login @ 2012-11-26 14:30:37
  61. 0wax84shirt registered @ 2012-11-26 14:31:03, last login @ 2012-11-26 14:31:03
  62. 0stick8fifth registered @ 2012-11-26 14:31:33, last login @ 2012-11-26 14:31:33
  63. 0rainpickle87 registered @ 2012-11-26 14:32:02, last login @ 2012-11-26 14:32:02
  64. 0sinkgauge57 registered @ 2012-11-26 14:32:50, last login @ 2012-11-26 14:32:50
  65. 0ghana4slope registered @ 2012-11-26 14:34:13, last login @ 2012-11-26 14:34:13
  66. 0anjunizar registered @ 2012-11-26 14:35:21, last login @ 2012-11-26 14:35:21
  67. 0enemy03pansy registered @ 2012-11-26 14:36:54, last login @ 2012-11-26 14:36:54
  68. 0gymtempo80 registered @ 2012-11-26 14:36:55, last login @ 2012-11-26 14:36:55
  69. 0manthread36 registered @ 2012-11-26 14:37:19, last login @ 2012-11-26 14:56:57
  70. 0gum1lilac registered @ 2012-11-26 14:37:31, last login @ 2012-11-26 14:37:31
  71. 0random76lip registered @ 2012-11-26 14:38:04, last login @ 2012-11-26 14:38:04
  72. 0wealth44bull registered @ 2012-11-26 14:40:04, last login @ 2012-11-26 14:40:04
  73. 0bait3pull registered @ 2012-11-26 14:40:05, last login @ 2012-11-26 14:40:05
  74. 0italy7colt registered @ 2012-11-26 14:43:10, last login @ 2012-11-26 14:43:10
  75. 0pepperflock03 registered @ 2012-11-26 14:43:52, last login @ 2012-11-26 14:43:52
  76. 0fightloss5 registered @ 2012-11-26 14:46:12, last login @ 2012-11-26 14:46:12
  77. 0gliderhockey8 registered @ 2012-11-26 14:46:21, last login @ 2012-11-26 14:46:21
  78. 0robin18onion registered @ 2012-11-26 14:46:35, last login @ 2012-11-26 14:46:35
  79. 0spain55iron registered @ 2012-11-26 14:46:49, last login @ 2012-11-26 14:46:49
  80. 0violeteast2 registered @ 2012-11-26 14:47:29, last login @ 2012-11-26 14:47:29
  81. 0men7bear registered @ 2012-11-26 14:48:42, last login @ 2012-11-26 14:48:42
  82. 0bikefriday6 registered @ 2012-11-26 14:48:44, last login @ 2012-11-26 14:48:44
  83. 0taiwanidea3 registered @ 2012-11-26 14:48:50, last login @ 2012-11-26 14:48:50
  84. 0recordstew42 registered @ 2012-11-26 14:48:52, last login @ 2012-11-26 14:48:52
  85. 0willow1tail registered @ 2012-11-26 14:49:56, last login @ 2012-11-26 14:49:56
  86. 0divingtrail40 registered @ 2012-11-26 14:51:34, last login @ 2012-11-26 14:51:34
  87. 0beamounce70 registered @ 2012-11-26 14:51:36, last login @ 2012-11-26 14:51:36
  88. 0blade2net registered @ 2012-11-26 14:52:10, last login @ 2012-11-26 14:52:10
  89. 0carp16zoo registered @ 2012-11-26 14:52:30, last login @ 2012-11-26 14:52:30
  90. 0airstitch7 registered @ 2012-11-26 14:53:58, last login @ 2012-11-26 14:53:58
  91. 0tradelier1 registered @ 2012-11-26 14:54:10, last login @ 2012-11-26 14:54:10
  92. 0perchbreath7 registered @ 2012-11-26 14:54:31, last login @ 2012-11-26 14:54:31
  93. 0RobertHSpivey registered @ 2012-11-26 14:56:13, last login @ 2012-11-26 14:56:13
  94. 0sneezelier55 registered @ 2012-11-26 14:56:32, last login @ 2012-11-26 14:56:32
  95. 0randomwood06 registered @ 2012-11-26 14:56:43, last login @ 2012-11-26 14:56:43
  96. 0Hansenhealth10 registered @ 2012-11-26 14:56:54, last login @ 2012-11-26 14:56:54
  97. 0copylaw1 registered @ 2012-11-26 14:57:05, last login @ 2012-11-26 14:57:05
  98. 0yogurt82base registered @ 2012-11-26 14:57:54, last login @ 2012-11-26 14:57:54
  99. 0redoval03 registered @ 2012-11-26 15:00:08, last login @ 2012-11-26 15:00:08
  100. 0SchmeisserDerham registered @ 2012-11-26 15:00:09, last login @ 2012-11-26 15:00:09
  101. 0andrewjoy75 registered @ 2012-11-26 15:00:19, last login @ 2012-11-26 15:00:19

More...

[4629] [4628] [4627] [4626] [4625] [4624] [4623] [4622] [4621] [4620] [4619] [4618] [4617] [4616] [4615] [4614] [4613] [4612] [4611] [4610] ...[1]
Back to Top